Time;durP1;ratioP1;P1;durP2;ratioP2;P2;SDS_P1;SDS_P2;PMS_P1;PMS_P2;Temp;Humidity;BMP_temperature;BMP_pressure;BME280_temperature;BME280_humidity;BME280_pressure;Samples;Min_cycle;Max_cycle;Signal;HPM_P1;HPM_P2
2021/12/22 00:01:39;;;;;;;11.50;6.10;;;-9.30;99.90;;;;;;4922119;29;20027;-96
2021/12/22 00:04:05;;;;;;;14.55;6.20;;;-9.30;99.90;;;;;;4922582;29;20399;-96
2021/12/22 00:06:33;;;;;;;16.45;6.78;;;-9.30;99.90;;;;;;4922568;29;20035;-96
2021/12/22 00:09:00;;;;;;;16.23;6.68;;;-9.30;99.90;;;;;;4923121;29;20050;-96
2021/12/22 00:11:26;;;;;;;17.60;7.18;;;-9.30;99.90;;;;;;4922647;29;20024;-96
2021/12/22 00:13:53;;;;;;;16.65;6.60;;;-9.30;99.90;;;;;;4922479;29;20428;-96
2021/12/22 00:16:18;;;;;;;12.68;6.03;;;-9.40;99.90;;;;;;4922692;29;20497;-96
2021/12/22 00:18:44;;;;;;;11.70;6.18;;;-9.40;99.90;;;;;;4922277;29;20032;-96
2021/12/22 00:21:10;;;;;;;14.02;5.75;;;-9.50;99.90;;;;;;4922440;29;20032;-96
2021/12/22 00:23:37;;;;;;;14.63;6.30;;;-9.60;99.90;;;;;;4922512;29;20042;-96
2021/12/22 00:26:04;;;;;;;12.82;6.05;;;-9.70;99.90;;;;;;4922345;29;20047;-95
2021/12/22 00:28:31;;;;;;;13.02;6.38;;;-9.80;99.90;;;;;;4922288;29;20032;-96
2021/12/22 00:30:57;;;;;;;10.60;5.82;;;-9.50;99.90;;;;;;4922217;29;20032;-96
2021/12/22 00:33:23;;;;;;;15.60;7.00;;;-9.90;99.90;;;;;;4921900;29;20024;-96
2021/12/22 00:35:48;;;;;;;11.60;5.85;;;-9.90;99.90;;;;;;4922010;29;20055;-95
2021/12/22 00:38:18;;;;;;;17.50;6.55;;;-9.90;99.90;;;;;;4921990;29;20390;-96
2021/12/22 00:40:45;;;;;;;16.38;5.70;;;-9.80;99.90;;;;;;4921935;29;20095;-96
2021/12/22 00:43:10;;;;;;;16.88;6.45;;;-10.00;99.90;;;;;;4922681;29;20054;-96
2021/12/22 00:45:38;;;;;;;19.30;6.45;;;-10.00;99.90;;;;;;4938766;29;20611;-96
2021/12/22 00:48:05;;;;;;;18.25;7.10;;;-10.10;99.90;;;;;;4921938;29;20107;-95
2021/12/22 00:50:32;;;;;;;16.50;7.28;;;-10.10;99.90;;;;;;4921887;29;20110;-95
2021/12/22 00:52:59;;;;;;;20.30;7.85;;;-10.20;99.90;;;;;;4921885;29;20019;-96
2021/12/22 00:55:25;;;;;;;15.13;6.40;;;-10.30;99.90;;;;;;4922012;29;20034;-96
2021/12/22 00:57:51;;;;;;;17.15;7.90;;;-10.30;99.90;;;;;;4921669;29;20040;-95
2021/12/22 01:00:19;;;;;;;18.38;6.93;;;-10.30;99.90;;;;;;4921602;29;20106;-96
2021/12/22 01:02:45;;;;;;;14.27;6.53;;;-10.30;99.90;;;;;;4921384;29;20024;-96
2021/12/22 01:05:14;;;;;;;17.02;6.38;;;-10.30;99.90;;;;;;4921846;29;20394;-96
2021/12/22 01:07:42;;;;;;;15.48;6.13;;;-10.30;99.90;;;;;;4921176;29;20048;-96
2021/12/22 01:10:09;;;;;;;10.25;5.55;;;-10.30;99.90;;;;;;4922275;29;20034;-96
2021/12/22 01:12:35;;;;;;;15.98;5.40;;;-10.20;99.90;;;;;;4920545;29;20032;-96
2021/12/22 01:15:00;;;;;;;13.48;6.68;;;-10.20;99.90;;;;;;4921420;29;20024;-96
2021/12/22 01:17:34;;;;;;;10.90;5.05;;;-10.10;99.90;;;;;;4921276;29;20497;-95
2021/12/22 01:20:07;;;;;;;15.55;5.97;;;-10.10;99.90;;;;;;4921127;29;20024;-95
2021/12/22 01:25:09;;;;;;;19.15;6.32;;;-10.00;99.90;;;;;;4938510;29;20419;-96
2021/12/22 01:27:40;;;;;;;16.65;7.47;;;-10.10;99.90;;;;;;4921191;29;20032;-95
2021/12/22 01:30:26;;;;;;;15.70;7.55;;;-9.90;99.90;;;;;;4921177;29;20494;-95
2021/12/22 01:32:56;;;;;;;14.57;7.00;;;-10.20;99.90;;;;;;4921358;29;20058;-95
2021/12/22 01:35:25;;;;;;;14.60;7.28;;;-10.30;99.90;;;;;;4920931;29;20028;-95
2021/12/22 01:37:52;;;;;;;17.20;7.35;;;-10.20;99.90;;;;;;4920976;29;20040;-96
2021/12/22 01:40:19;;;;;;;18.92;6.95;;;-10.20;99.90;;;;;;4920823;29;20134;-95
2021/12/22 01:42:46;;;;;;;17.35;7.80;;;-10.10;99.90;;;;;;4921005;29;20043;-96
2021/12/22 01:45:30;;;;;;;25.27;8.68;;;-10.00;99.90;;;;;;4920773;29;20034;-95
2021/12/22 01:50:46;;;;;;;20.02;8.10;;;-9.50;99.90;;;;;;4938134;29;20086;-95
2021/12/22 01:53:20;;;;;;;29.15;11.35;;;-9.70;99.90;;;;;;4921118;29;20032;-96
2021/12/22 01:56:07;;;;;;;31.73;12.25;;;-9.70;99.90;;;;;;4920583;29;20486;-95
2021/12/22 01:58:36;;;;;;;28.83;12.85;;;-9.70;99.90;;;;;;4920673;29;20028;-96
2021/12/22 02:01:04;;;;;;;30.63;11.88;;;-9.70;99.90;;;;;;4920544;29;20031;-95
2021/12/22 02:03:30;;;;;;;23.52;10.60;;;-9.70;99.90;;;;;;4920747;29;20039;-95
2021/12/22 02:05:56;;;;;;;28.02;10.23;;;-9.60;99.90;;;;;;4920499;29;20024;-96
2021/12/22 02:08:21;;;;;;;24.17;10.73;;;-9.70;99.90;;;;;;4920278;29;20043;-96
2021/12/22 02:10:48;;;;;;;28.60;11.65;;;-9.70;99.90;;;;;;4920505;29;20031;-96
2021/12/22 02:13:20;;;;;;;30.35;12.88;;;-9.70;99.90;;;;;;4920321;29;20030;-95
2021/12/22 02:15:47;;;;;;;25.60;12.18;;;-9.80;99.90;;;;;;4920441;29;20065;-95
2021/12/22 02:18:22;;;;;;;21.52;10.23;;;-10.00;99.90;;;;;;4920427;29;20458;-95
2021/12/22 02:20:49;;;;;;;26.63;11.73;;;-9.90;99.90;;;;;;4920527;29;20064;-95
2021/12/22 02:23:16;;;;;;;23.58;11.20;;;-9.90;99.90;;;;;;4920131;29;20032;-96
2021/12/22 02:25:51;;;;;;;22.70;10.63;;;-9.90;99.90;;;;;;4920277;29;20070;-96
2021/12/22 02:28:22;;;;;;;27.00;10.82;;;-9.80;99.90;;;;;;4920178;29;20134;-95
2021/12/22 02:30:47;;;;;;;29.05;12.00;;;-10.00;99.90;;;;;;4920245;29;20115;-94
2021/12/22 02:33:34;;;;;;;32.20;12.23;;;-9.90;99.90;;;;;;4920485;29;20062;-96
2021/12/22 02:36:08;;;;;;;24.10;10.80;;;-10.00;99.90;;;;;;4920292;29;20115;-96
2021/12/22 02:38:43;;;;;;;28.70;11.20;;;-9.90;99.90;;;;;;4920092;29;20083;-95
2021/12/22 02:41:12;;;;;;;27.55;12.15;;;-10.10;99.90;;;;;;4921121;29;20458;-96
2021/12/22 02:43:51;;;;;;;28.95;11.50;;;-10.10;99.90;;;;;;4920168;29;20083;-95
2021/12/22 02:46:22;;;;;;;25.33;10.30;;;-10.20;99.90;;;;;;4920121;29;20063;-95
2021/12/22 02:48:49;;;;;;;30.73;11.98;;;-10.10;99.90;;;;;;4920123;29;20083;-95
2021/12/22 02:51:15;;;;;;;22.48;10.98;;;-11.20;99.90;;;;;;4920045;29;20024;-96
2021/12/22 02:53:50;;;;;;;27.33;10.77;;;-10.60;99.90;;;;;;4920018;29;20030;-95
2021/12/22 03:04:07;;;;;;;25.02;10.95;;;-9.30;99.90;;;;;;4937532;29;20034;-95
2021/12/22 03:06:40;;;;;;;21.85;9.80;;;-10.60;99.90;;;;;;4919611;29;20023;-95
2021/12/22 03:09:19;;;;;;;25.50;10.77;;;-10.80;99.90;;;;;;4919831;29;20036;-95
2021/12/22 03:11:46;;;;;;;28.92;12.43;;;-12.00;99.90;;;;;;4919869;29;20050;-96
2021/12/22 03:14:13;;;;;;;47.88;18.58;;;-10.90;99.90;;;;;;4919953;29;20028;-95
2021/12/22 03:16:43;;;;;;;42.40;17.38;;;-11.10;99.90;;;;;;4920045;29;20023;-95
2021/12/22 03:19:11;;;;;;;34.42;14.85;;;-11.10;99.90;;;;;;4920583;29;20040;-95
2021/12/22 03:21:38;;;;;;;29.13;12.85;;;-10.70;99.90;;;;;;4919721;29;20036;-95
2021/12/22 03:24:04;;;;;;;25.27;12.07;;;-12.00;99.90;;;;;;4920128;29;20027;-96
2021/12/22 03:26:30;;;;;;;22.00;10.55;;;-10.00;99.90;;;;;;4920363;29;20032;-95
2021/12/22 03:28:55;;;;;;;24.88;10.95;;;-10.70;99.90;;;;;;4919809;29;20039;-95
2021/12/22 03:31:21;;;;;;;25.25;10.52;;;-10.70;99.90;;;;;;4919840;29;20490;-95
2021/12/22 03:33:47;;;;;;;20.83;10.20;;;-10.60;99.90;;;;;;4919524;29;20023;-94
2021/12/22 03:36:13;;;;;;;25.30;11.25;;;-10.50;99.90;;;;;;4922024;29;20047;-96
2021/12/22 03:38:40;;;;;;;32.28;12.63;;;-10.40;99.90;;;;;;4922931;29;20114;-96
2021/12/22 03:41:08;;;;;;;29.30;13.23;;;-10.40;99.90;;;;;;4923022;29;20031;-94
2021/12/22 03:43:35;;;;;;;37.17;16.35;;;-10.40;99.90;;;;;;4923045;29;20032;-96
2021/12/22 03:46:02;;;;;;;55.40;20.50;;;-10.30;99.90;;;;;;4922892;29;20364;-95
2021/12/22 03:48:28;;;;;;;50.05;22.13;;;-10.30;99.90;;;;;;4923009;29;20034;-96
2021/12/22 03:50:54;;;;;;;39.88;17.27;;;-10.20;99.90;;;;;;4922856;29;20024;-95
2021/12/22 03:53:20;;;;;;;52.72;19.85;;;-10.20;99.90;;;;;;4922974;29;20020;-95
2021/12/22 03:55:46;;;;;;;43.05;16.85;;;-10.10;99.90;;;;;;4923043;29;20095;-94
2021/12/22 03:58:12;;;;;;;36.45;14.95;;;-10.20;99.90;;;;;;4922814;29;20119;-96
2021/12/22 04:00:41;;;;;;;47.45;19.63;;;-10.20;99.90;;;;;;4922811;29;20126;-95
2021/12/22 04:03:11;;;;;;;37.70;15.95;;;-10.20;99.90;;;;;;4922689;29;20035;-95
2021/12/22 04:05:36;;;;;;;25.60;12.63;;;-10.10;99.90;;;;;;4922675;29;20039;-95
2021/12/22 04:08:02;;;;;;;36.75;17.15;;;-10.00;99.90;;;;;;4922214;29;20103;-95
2021/12/22 04:10:28;;;;;;;37.78;15.45;;;-9.90;99.90;;;;;;4922458;29;20051;-95
2021/12/22 04:12:56;;;;;;;40.53;15.68;;;-10.10;99.90;;;;;;4922650;29;20126;-95
2021/12/22 04:15:24;;;;;;;39.30;15.82;;;-10.00;99.90;;;;;;4922753;29;20028;-95
2021/12/22 04:17:50;;;;;;;33.50;13.48;;;-10.10;99.90;;;;;;4922511;29;20036;-95
2021/12/22 04:20:16;;;;;;;41.13;14.48;;;-10.20;99.90;;;;;;4922386;29;20487;-95
2021/12/22 04:22:43;;;;;;;23.85;11.18;;;-10.10;99.90;;;;;;4922238;29;20031;-95
2021/12/22 04:25:09;;;;;;;36.63;13.98;;;-10.20;99.90;;;;;;4922449;29;20035;-94
2021/12/22 04:27:36;;;;;;;31.05;12.82;;;-10.30;99.90;;;;;;4922259;29;20394;-95
2021/12/22 04:30:04;;;;;;;30.10;12.77;;;-10.10;99.90;;;;;;4922431;29;20032;-94
2021/12/22 04:32:30;;;;;;;28.85;12.13;;;-10.00;99.90;;;;;;4922111;29;20119;-95
2021/12/22 04:34:56;;;;;;;28.65;12.43;;;-10.10;99.90;;;;;;4939872;29;20488;-96
2021/12/22 04:37:23;;;;;;;26.42;10.70;;;-10.00;99.90;;;;;;4941317;29;20031;-95
2021/12/22 04:39:49;;;;;;;24.77;11.43;;;-9.90;99.90;;;;;;4940907;29;20106;-96
2021/12/22 04:42:16;;;;;;;27.48;11.05;;;-9.80;99.90;;;;;;4941125;29;20489;-96
2021/12/22 04:44:42;;;;;;;23.80;10.77;;;-9.80;99.90;;;;;;4941004;29;20019;-96
2021/12/22 04:47:07;;;;;;;20.10;9.80;;;-9.70;99.90;;;;;;4940780;29;20087;-96
2021/12/22 04:49:33;;;;;;;33.00;14.68;;;-9.50;99.90;;;;;;4940789;29;20027;-96
2021/12/22 04:52:01;;;;;;;31.85;12.90;;;-9.50;99.90;;;;;;4940830;29;20390;-96
2021/12/22 04:56:53;;;;;;;39.13;15.95;;;-9.70;99.90;;;;;;4959404;29;20027;-96
2021/12/22 04:59:19;;;;;;;41.17;16.15;;;-9.60;99.90;;;;;;4942543;29;20054;-96
2021/12/22 05:01:45;;;;;;;28.95;13.15;;;-9.50;99.90;;;;;;4942344;29;20027;-96
2021/12/22 05:04:11;;;;;;;34.25;15.20;;;;;;;;;;4951669;29;20023;-96
2021/12/22 05:06:40;;;;;;;37.67;15.20;;;-9.40;99.90;;;;;;4958783;28;20066;-96
2021/12/22 05:14:17;;;;;;;34.13;14.60;;;-9.30;99.90;;;;;;4937731;29;20052;-96
2021/12/22 05:17:37;;;;;;;29.90;12.80;;;-9.50;99.90;;;;;;4921524;29;20020;-96
2021/12/22 14:33:01;;;;;;;25.52;13.25;;;-9.10;99.90;;;;;;5251101;23;20114;-96
2021/12/22 14:35:42;;;;;;;20.70;10.98;;;-9.10;99.90;;;;;;4969271;29;20043;-96
2021/12/22 14:38:33;;;;;;;21.42;11.82;;;-9.10;99.90;;;;;;4967122;28;20027;-95
